Murdochville, Canada
Current Conditions -  °F | °C
As of 11:12 AM on Monday 24 Nov 2014 (Local Time) from CYGP Reporting Station
Light Rain Light Rain  
Wind Chill: 28°   Ceiling: 1600
Heat Index: 36°   Visibility: 6mi
Dew Point: 34°   Wind: 10mph
Humidity: 93%   Direction: 90°E
Pressure: 30.05"   Gusts: NA
Location:  48.97°N, 65.52°W
Report Text: CYGP 241612Z 09009KT 6SM -RA FEW009 BKN016 OVC085 02/01 A3005 RMK SF1SC6AC1 SLP177
Loading
Personal Weather Stations






























Interactive Weather Map New forecast layout! Learn more

10-Day Weather Forecast

Advertisements
Track Severe Weather on mobile